Terminal Aerodrome Forecast
Issued by NWS

Home | Current Version | Previous Version | Text Only | Print | Product List | Glossary Off
Versions: 1 2 3 4 5 6 7 8 9 10 11 12 13 14 15 16 17 18

000
FTUS43 KBIS 231559 AAA
TAFMOT
TAF AMD
KMOT 231559Z 2316/2412 36011G20KT P6SM SKC
     FM231700 02013G23KT P6SM FEW200
     FM240200 12005KT P6SM FEW250=

USA.gov is the U.S. government's official web portal to all federal, state and local government web resources and services.